sensor_id;sensor_type;location;lat;lon;timestamp;P1;durP1;ratioP1;P2;durP2;ratioP2
21128;SDS011;10722;51.910;8.352;2023-03-21T00:02:40;27.67;;;10.70;;
21128;SDS011;10722;51.910;8.352;2023-03-21T00:05:25;26.17;;;11.10;;
21128;SDS011;10722;51.910;8.352;2023-03-21T00:08:11;25.03;;;10.77;;
21128;SDS011;10722;51.910;8.352;2023-03-21T00:10:57;24.57;;;10.87;;
21128;SDS011;10722;51.910;8.352;2023-03-21T00:13:47;30.53;;;11.27;;
21128;SDS011;10722;51.910;8.352;2023-03-21T00:16:33;26.80;;;11.03;;
21128;SDS011;10722;51.910;8.352;2023-03-21T00:19:20;25.43;;;10.73;;
21128;SDS011;10722;51.910;8.352;2023-03-21T00:22:06;27.37;;;11.40;;
21128;SDS011;10722;51.910;8.352;2023-03-21T00:24:53;24.93;;;11.13;;
21128;SDS011;10722;51.910;8.352;2023-03-21T00:27:39;28.63;;;12.23;;
21128;SDS011;10722;51.910;8.352;2023-03-21T00:30:44;29.93;;;12.20;;
21128;SDS011;10722;51.910;8.352;2023-03-21T00:33:29;32.33;;;11.70;;
21128;SDS011;10722;51.910;8.352;2023-03-21T00:36:14;28.47;;;12.70;;
21128;SDS011;10722;51.910;8.352;2023-03-21T00:38:59;27.83;;;13.00;;
21128;SDS011;10722;51.910;8.352;2023-03-21T00:41:45;29.13;;;13.10;;
21128;SDS011;10722;51.910;8.352;2023-03-21T00:44:30;30.93;;;13.70;;
21128;SDS011;10722;51.910;8.352;2023-03-21T00:47:16;29.07;;;14.27;;
21128;SDS011;10722;51.910;8.352;2023-03-21T00:50:01;34.03;;;16.60;;
21128;SDS011;10722;51.910;8.352;2023-03-21T00:52:46;31.90;;;16.03;;
21128;SDS011;10722;51.910;8.352;2023-03-21T00:55:32;35.43;;;16.33;;
21128;SDS011;10722;51.910;8.352;2023-03-21T00:58:18;29.20;;;15.20;;
21128;SDS011;10722;51.910;8.352;2023-03-21T01:01:03;35.80;;;16.50;;
21128;SDS011;10722;51.910;8.352;2023-03-21T01:03:48;35.13;;;16.80;;
21128;SDS011;10722;51.910;8.352;2023-03-21T01:06:35;35.53;;;17.13;;
21128;SDS011;10722;51.910;8.352;2023-03-21T01:09:22;37.40;;;18.73;;
21128;SDS011;10722;51.910;8.352;2023-03-21T01:12:08;37.30;;;17.83;;
21128;SDS011;10722;51.910;8.352;2023-03-21T01:14:53;33.87;;;17.43;;
21128;SDS011;10722;51.910;8.352;2023-03-21T01:17:39;33.07;;;18.77;;
21128;SDS011;10722;51.910;8.352;2023-03-21T01:20:24;36.93;;;18.80;;
21128;SDS011;10722;51.910;8.352;2023-03-21T01:23:11;34.50;;;18.47;;
21128;SDS011;10722;51.910;8.352;2023-03-21T01:25:57;34.67;;;19.17;;
21128;SDS011;10722;51.910;8.352;2023-03-21T01:28:43;36.80;;;17.20;;
21128;SDS011;10722;51.910;8.352;2023-03-21T01:31:28;32.27;;;17.60;;
21128;SDS011;10722;51.910;8.352;2023-03-21T01:34:14;31.67;;;17.97;;
21128;SDS011;10722;51.910;8.352;2023-03-21T01:36:59;38.50;;;17.63;;
21128;SDS011;10722;51.910;8.352;2023-03-21T01:39:44;32.53;;;17.40;;
21128;SDS011;10722;51.910;8.352;2023-03-21T01:42:30;34.83;;;16.17;;
21128;SDS011;10722;51.910;8.352;2023-03-21T01:48:39;33.93;;;17.63;;
21128;SDS011;10722;51.910;8.352;2023-03-21T01:51:27;29.77;;;16.10;;
21128;SDS011;10722;51.910;8.352;2023-03-21T01:54:16;37.63;;;16.63;;
21128;SDS011;10722;51.910;8.352;2023-03-21T01:57:08;32.97;;;16.67;;
21128;SDS011;10722;51.910;8.352;2023-03-21T02:00:00;36.47;;;16.50;;
21128;SDS011;10722;51.910;8.352;2023-03-21T02:02:50;40.23;;;17.13;;
21128;SDS011;10722;51.910;8.352;2023-03-21T02:05:39;32.13;;;16.90;;
21128;SDS011;10722;51.910;8.352;2023-03-21T02:08:33;32.33;;;16.43;;
21128;SDS011;10722;51.910;8.352;2023-03-21T02:11:24;36.03;;;15.73;;
21128;SDS011;10722;51.910;8.352;2023-03-21T02:14:11;34.80;;;16.90;;
21128;SDS011;10722;51.910;8.352;2023-03-21T02:17:13;37.30;;;16.83;;
21128;SDS011;10722;51.910;8.352;2023-03-21T02:41:44;35.23;;;15.10;;
21128;SDS011;10722;51.910;8.352;2023-03-21T02:44:43;35.00;;;15.97;;
21128;SDS011;10722;51.910;8.352;2023-03-21T02:47:38;32.10;;;15.30;;
21128;SDS011;10722;51.910;8.352;2023-03-21T02:50:31;33.60;;;15.50;;
21128;SDS011;10722;51.910;8.352;2023-03-21T02:53:38;35.10;;;14.90;;
21128;SDS011;10722;51.910;8.352;2023-03-21T02:56:27;31.77;;;14.60;;
21128;SDS011;10722;51.910;8.352;2023-03-21T02:59:15;38.83;;;16.07;;
21128;SDS011;10722;51.910;8.352;2023-03-21T03:02:02;32.27;;;13.50;;
21128;SDS011;10722;51.910;8.352;2023-03-21T03:04:48;32.67;;;14.50;;
21128;SDS011;10722;51.910;8.352;2023-03-21T03:23:57;32.20;;;14.10;;
21128;SDS011;10722;51.910;8.352;2023-03-21T03:29:30;31.23;;;13.77;;
21128;SDS011;10722;51.910;8.352;2023-03-21T03:32:23;32.50;;;13.77;;
21128;SDS011;10722;51.910;8.352;2023-03-21T03:35:13;32.33;;;13.73;;
21128;SDS011;10722;51.910;8.352;2023-03-21T03:38:02;31.70;;;13.40;;
21128;SDS011;10722;51.910;8.352;2023-03-21T03:41:10;27.73;;;12.70;;
21128;SDS011;10722;51.910;8.352;2023-03-21T03:44:00;32.70;;;12.50;;
21128;SDS011;10722;51.910;8.352;2023-03-21T03:46:49;27.97;;;12.70;;
21128;SDS011;10722;51.910;8.352;2023-03-21T03:49:47;36.67;;;13.20;;
21128;SDS011;10722;51.910;8.352;2023-03-21T03:53:01;29.37;;;12.40;;
21128;SDS011;10722;51.910;8.352;2023-03-21T03:56:01;28.63;;;12.57;;
21128;SDS011;10722;51.910;8.352;2023-03-21T03:58:50;35.33;;;14.17;;
21128;SDS011;10722;51.910;8.352;2023-03-21T04:01:35;31.73;;;13.07;;
21128;SDS011;10722;51.910;8.352;2023-03-21T04:04:21;28.43;;;13.70;;
21128;SDS011;10722;51.910;8.352;2023-03-21T04:07:06;31.03;;;13.13;;
21128;SDS011;10722;51.910;8.352;2023-03-21T04:09:51;32.37;;;13.50;;
21128;SDS011;10722;51.910;8.352;2023-03-21T04:12:37;30.50;;;13.67;;
21128;SDS011;10722;51.910;8.352;2023-03-21T04:15:21;29.23;;;13.20;;
21128;SDS011;10722;51.910;8.352;2023-03-21T04:18:07;31.13;;;13.40;;
21128;SDS011;10722;51.910;8.352;2023-03-21T04:20:52;31.73;;;13.37;;
21128;SDS011;10722;51.910;8.352;2023-03-21T04:23:38;32.27;;;13.40;;
21128;SDS011;10722;51.910;8.352;2023-03-21T04:26:24;31.37;;;14.13;;
21128;SDS011;10722;51.910;8.352;2023-03-21T04:29:09;29.00;;;13.07;;
21128;SDS011;10722;51.910;8.352;2023-03-21T04:31:55;32.07;;;13.90;;
21128;SDS011;10722;51.910;8.352;2023-03-21T04:34:42;30.80;;;13.47;;
21128;SDS011;10722;51.910;8.352;2023-03-21T04:37:27;30.47;;;14.27;;
21128;SDS011;10722;51.910;8.352;2023-03-21T04:40:12;28.70;;;13.73;;
21128;SDS011;10722;51.910;8.352;2023-03-21T04:42:58;34.10;;;13.23;;
21128;SDS011;10722;51.910;8.352;2023-03-21T04:45:44;29.73;;;13.53;;
21128;SDS011;10722;51.910;8.352;2023-03-21T04:48:29;35.30;;;14.60;;
21128;SDS011;10722;51.910;8.352;2023-03-21T04:51:15;34.20;;;14.33;;
21128;SDS011;10722;51.910;8.352;2023-03-21T04:54:01;28.10;;;13.33;;
21128;SDS011;10722;51.910;8.352;2023-03-21T04:56:46;35.00;;;15.47;;
21128;SDS011;10722;51.910;8.352;2023-03-21T04:59:31;32.87;;;14.80;;
21128;SDS011;10722;51.910;8.352;2023-03-21T05:02:16;32.10;;;14.23;;
21128;SDS011;10722;51.910;8.352;2023-03-21T05:05:01;36.13;;;14.20;;
21128;SDS011;10722;51.910;8.352;2023-03-21T05:07:47;33.23;;;13.97;;
21128;SDS011;10722;51.910;8.352;2023-03-21T05:10:32;30.20;;;13.83;;
21128;SDS011;10722;51.910;8.352;2023-03-21T05:13:17;31.87;;;14.00;;
21128;SDS011;10722;51.910;8.352;2023-03-21T05:16:03;30.00;;;14.43;;
21128;SDS011;10722;51.910;8.352;2023-03-21T05:18:49;30.07;;;13.83;;
21128;SDS011;10722;51.910;8.352;2023-03-21T05:21:34;32.33;;;15.27;;
21128;SDS011;10722;51.910;8.352;2023-03-21T05:24:20;33.47;;;14.03;;
21128;SDS011;10722;51.910;8.352;2023-03-21T05:27:05;38.63;;;14.33;;
21128;SDS011;10722;51.910;8.352;2023-03-21T05:29:51;31.53;;;14.63;;
21128;SDS011;10722;51.910;8.352;2023-03-21T05:32:36;31.70;;;15.03;;
21128;SDS011;10722;51.910;8.352;2023-03-21T05:35:21;34.27;;;14.37;;
21128;SDS011;10722;51.910;8.352;2023-03-21T05:38:06;30.90;;;13.90;;
21128;SDS011;10722;51.910;8.352;2023-03-21T05:40:52;32.77;;;15.23;;
21128;SDS011;10722;51.910;8.352;2023-03-21T05:43:37;33.73;;;14.87;;
21128;SDS011;10722;51.910;8.352;2023-03-21T05:46:23;35.03;;;14.83;;
21128;SDS011;10722;51.910;8.352;2023-03-21T05:49:09;30.80;;;14.03;;
21128;SDS011;10722;51.910;8.352;2023-03-21T05:51:55;32.15;;;14.82;;
21128;SDS011;10722;51.910;8.352;2023-03-21T05:54:39;33.13;;;15.03;;
21128;SDS011;10722;51.910;8.352;2023-03-21T05:57:25;35.77;;;15.00;;
21128;SDS011;10722;51.910;8.352;2023-03-21T06:00:10;37.10;;;14.97;;
21128;SDS011;10722;51.910;8.352;2023-03-21T06:02:56;29.20;;;14.60;;
21128;SDS011;10722;51.910;8.352;2023-03-21T06:05:41;32.30;;;15.23;;
21128;SDS011;10722;51.910;8.352;2023-03-21T06:08:27;36.27;;;14.87;;
21128;SDS011;10722;51.910;8.352;2023-03-21T06:11:47;32.97;;;14.43;;
21128;SDS011;10722;51.910;8.352;2023-03-21T06:14:28;30.00;;;14.67;;
21128;SDS011;10722;51.910;8.352;2023-03-21T06:17:12;33.13;;;15.07;;
21128;SDS011;10722;51.910;8.352;2023-03-21T06:19:57;31.57;;;15.03;;
21128;SDS011;10722;51.910;8.352;2023-03-21T06:22:43;36.10;;;15.37;;
21128;SDS011;10722;51.910;8.352;2023-03-21T06:25:28;36.03;;;15.27;;
21128;SDS011;10722;51.910;8.352;2023-03-21T06:28:14;32.13;;;14.53;;
21128;SDS011;10722;51.910;8.352;2023-03-21T06:30:59;30.60;;;14.83;;
21128;SDS011;10722;51.910;8.352;2023-03-21T06:33:44;30.33;;;15.93;;
21128;SDS011;10722;51.910;8.352;2023-03-21T06:36:29;30.00;;;15.13;;
21128;SDS011;10722;51.910;8.352;2023-03-21T06:39:15;30.90;;;15.03;;
21128;SDS011;10722;51.910;8.352;2023-03-21T06:42:00;31.50;;;14.47;;
21128;SDS011;10722;51.910;8.352;2023-03-21T06:44:45;37.10;;;15.80;;
21128;SDS011;10722;51.910;8.352;2023-03-21T06:47:31;37.67;;;15.47;;
21128;SDS011;10722;51.910;8.352;2023-03-21T06:50:16;35.27;;;15.57;;
21128;SDS011;10722;51.910;8.352;2023-03-21T06:53:01;31.60;;;15.60;;
21128;SDS011;10722;51.910;8.352;2023-03-21T06:55:48;33.57;;;15.67;;
21128;SDS011;10722;51.910;8.352;2023-03-21T06:58:36;30.50;;;14.90;;
21128;SDS011;10722;51.910;8.352;2023-03-21T07:01:21;32.33;;;14.53;;
21128;SDS011;10722;51.910;8.352;2023-03-21T07:04:07;32.27;;;15.33;;
21128;SDS011;10722;51.910;8.352;2023-03-21T07:06:53;33.73;;;15.90;;
21128;SDS011;10722;51.910;8.352;2023-03-21T07:09:39;30.23;;;14.73;;
21128;SDS011;10722;51.910;8.352;2023-03-21T07:12:24;33.57;;;14.97;;
21128;SDS011;10722;51.910;8.352;2023-03-21T07:15:09;35.33;;;14.70;;
21128;SDS011;10722;51.910;8.352;2023-03-21T07:17:55;32.77;;;14.90;;
21128;SDS011;10722;51.910;8.352;2023-03-21T07:20:44;31.93;;;15.57;;
21128;SDS011;10722;51.910;8.352;2023-03-21T07:23:31;33.40;;;14.63;;
21128;SDS011;10722;51.910;8.352;2023-03-21T07:26:17;33.20;;;15.10;;
21128;SDS011;10722;51.910;8.352;2023-03-21T07:29:02;33.63;;;15.23;;
21128;SDS011;10722;51.910;8.352;2023-03-21T07:31:48;35.03;;;15.70;;
21128;SDS011;10722;51.910;8.352;2023-03-21T07:34:33;35.10;;;16.17;;
21128;SDS011;10722;51.910;8.352;2023-03-21T07:37:18;28.90;;;13.93;;
21128;SDS011;10722;51.910;8.352;2023-03-21T07:40:03;31.70;;;13.80;;
21128;SDS011;10722;51.910;8.352;2023-03-21T07:42:50;42.20;;;15.57;;
21128;SDS011;10722;51.910;8.352;2023-03-21T07:45:35;38.40;;;15.70;;
21128;SDS011;10722;51.910;8.352;2023-03-21T07:48:22;31.37;;;14.80;;
21128;SDS011;10722;51.910;8.352;2023-03-21T07:51:07;34.13;;;16.20;;
21128;SDS011;10722;51.910;8.352;2023-03-21T07:53:53;37.10;;;16.10;;
21128;SDS011;10722;51.910;8.352;2023-03-21T07:56:38;35.20;;;16.30;;
21128;SDS011;10722;51.910;8.352;2023-03-21T07:59:23;33.93;;;15.53;;
21128;SDS011;10722;51.910;8.352;2023-03-21T08:02:12;34.53;;;15.57;;
21128;SDS011;10722;51.910;8.352;2023-03-21T08:04:58;35.23;;;15.63;;
21128;SDS011;10722;51.910;8.352;2023-03-21T08:07:43;32.67;;;16.60;;
21128;SDS011;10722;51.910;8.352;2023-03-21T08:10:29;31.67;;;16.23;;
21128;SDS011;10722;51.910;8.352;2023-03-21T08:13:14;36.07;;;17.50;;
21128;SDS011;10722;51.910;8.352;2023-03-21T08:15:59;38.67;;;17.17;;
21128;SDS011;10722;51.910;8.352;2023-03-21T08:18:45;37.43;;;17.70;;
21128;SDS011;10722;51.910;8.352;2023-03-21T08:21:30;35.20;;;17.33;;
21128;SDS011;10722;51.910;8.352;2023-03-21T08:24:16;39.23;;;17.67;;
21128;SDS011;10722;51.910;8.352;2023-03-21T08:27:01;43.37;;;18.20;;
21128;SDS011;10722;51.910;8.352;2023-03-21T08:29:46;38.20;;;17.10;;
21128;SDS011;10722;51.910;8.352;2023-03-21T08:32:31;40.27;;;18.73;;
21128;SDS011;10722;51.910;8.352;2023-03-21T08:35:17;37.97;;;18.60;;
21128;SDS011;10722;51.910;8.352;2023-03-21T08:38:03;39.83;;;18.53;;
21128;SDS011;10722;51.910;8.352;2023-03-21T08:40:49;37.60;;;18.03;;
21128;SDS011;10722;51.910;8.352;2023-03-21T08:43:34;38.73;;;18.37;;
21128;SDS011;10722;51.910;8.352;2023-03-21T08:46:19;43.33;;;19.97;;
21128;SDS011;10722;51.910;8.352;2023-03-21T08:49:04;43.83;;;20.10;;
21128;SDS011;10722;51.910;8.352;2023-03-21T08:51:53;47.50;;;20.67;;
21128;SDS011;10722;51.910;8.352;2023-03-21T08:54:40;44.80;;;20.37;;
21128;SDS011;10722;51.910;8.352;2023-03-21T08:57:26;47.70;;;20.03;;
21128;SDS011;10722;51.910;8.352;2023-03-21T09:00:13;40.73;;;20.53;;
21128;SDS011;10722;51.910;8.352;2023-03-21T09:03:00;45.93;;;21.13;;
21128;SDS011;10722;51.910;8.352;2023-03-21T09:05:45;43.93;;;19.80;;
21128;SDS011;10722;51.910;8.352;2023-03-21T09:08:31;45.47;;;22.07;;
21128;SDS011;10722;51.910;8.352;2023-03-21T09:11:16;41.27;;;19.23;;
21128;SDS011;10722;51.910;8.352;2023-03-21T09:14:01;45.23;;;20.50;;
21128;SDS011;10722;51.910;8.352;2023-03-21T09:16:46;41.77;;;20.23;;
21128;SDS011;10722;51.910;8.352;2023-03-21T09:19:31;41.80;;;20.90;;
21128;SDS011;10722;51.910;8.352;2023-03-21T09:22:16;43.90;;;20.77;;
21128;SDS011;10722;51.910;8.352;2023-03-21T09:25:02;36.97;;;18.83;;
21128;SDS011;10722;51.910;8.352;2023-03-21T09:27:47;41.10;;;19.93;;
21128;SDS011;10722;51.910;8.352;2023-03-21T09:30:34;43.13;;;19.97;;
21128;SDS011;10722;51.910;8.352;2023-03-21T09:33:21;40.90;;;19.40;;
21128;SDS011;10722;51.910;8.352;2023-03-21T09:36:07;40.93;;;18.90;;
21128;SDS011;10722;51.910;8.352;2023-03-21T09:38:53;42.00;;;19.77;;
21128;SDS011;10722;51.910;8.352;2023-03-21T09:45:15;39.03;;;19.03;;
21128;SDS011;10722;51.910;8.352;2023-03-21T09:48:03;41.43;;;19.23;;
21128;SDS011;10722;51.910;8.352;2023-03-21T09:50:50;43.30;;;20.43;;
21128;SDS011;10722;51.910;8.352;2023-03-21T09:53:36;48.03;;;19.10;;
21128;SDS011;10722;51.910;8.352;2023-03-21T09:56:25;42.27;;;20.10;;
21128;SDS011;10722;51.910;8.352;2023-03-21T09:59:18;44.07;;;19.87;;
21128;SDS011;10722;51.910;8.352;2023-03-21T10:05:27;41.40;;;19.40;;
21128;SDS011;10722;51.910;8.352;2023-03-21T10:08:19;46.23;;;19.73;;
21128;SDS011;10722;51.910;8.352;2023-03-21T10:11:10;36.97;;;17.70;;
21128;SDS011;10722;51.910;8.352;2023-03-21T10:14:13;37.73;;;17.93;;
21128;SDS011;10722;51.910;8.352;2023-03-21T10:20:17;34.13;;;17.67;;
21128;SDS011;10722;51.910;8.352;2023-03-21T10:23:15;41.13;;;18.23;;
21128;SDS011;10722;51.910;8.352;2023-03-21T10:26:04;39.67;;;19.27;;
21128;SDS011;10722;51.910;8.352;2023-03-21T10:28:51;42.90;;;20.70;;
21128;SDS011;10722;51.910;8.352;2023-03-21T10:31:40;36.47;;;18.60;;
21128;SDS011;10722;51.910;8.352;2023-03-21T10:37:34;38.80;;;16.47;;
21128;SDS011;10722;51.910;8.352;2023-03-21T10:40:19;34.07;;;17.43;;
21128;SDS011;10722;51.910;8.352;2023-03-21T10:46:25;40.97;;;19.67;;
21128;SDS011;10722;51.910;8.352;2023-03-21T10:49:13;35.97;;;17.40;;
21128;SDS011;10722;51.910;8.352;2023-03-21T10:52:01;36.17;;;18.20;;
21128;SDS011;10722;51.910;8.352;2023-03-21T10:54:51;36.63;;;16.97;;
21128;SDS011;10722;51.910;8.352;2023-03-21T10:57:59;37.03;;;17.37;;
21128;SDS011;10722;51.910;8.352;2023-03-21T11:00:47;32.90;;;16.90;;
21128;SDS011;10722;51.910;8.352;2023-03-21T11:03:42;29.60;;;16.40;;
21128;SDS011;10722;51.910;8.352;2023-03-21T11:06:30;38.00;;;17.23;;
21128;SDS011;10722;51.910;8.352;2023-03-21T11:09:18;38.40;;;17.30;;
21128;SDS011;10722;51.910;8.352;2023-03-21T11:12:09;33.27;;;18.07;;
21128;SDS011;10722;51.910;8.352;2023-03-21T11:14:58;31.40;;;16.30;;
21128;SDS011;10722;51.910;8.352;2023-03-21T11:18:13;35.47;;;18.20;;
21128;SDS011;10722;51.910;8.352;2023-03-21T11:21:06;36.93;;;18.30;;
21128;SDS011;10722;51.910;8.352;2023-03-21T11:23:55;38.70;;;18.67;;
21128;SDS011;10722;51.910;8.352;2023-03-21T11:26:42;34.47;;;17.53;;
21128;SDS011;10722;51.910;8.352;2023-03-21T11:29:30;35.77;;;17.63;;
21128;SDS011;10722;51.910;8.352;2023-03-21T11:32:21;31.93;;;16.80;;
21128;SDS011;10722;51.910;8.352;2023-03-21T11:35:15;35.10;;;18.50;;
21128;SDS011;10722;51.910;8.352;2023-03-21T11:38:04;36.57;;;18.70;;
21128;SDS011;10722;51.910;8.352;2023-03-21T11:41:07;35.37;;;17.83;;
21128;SDS011;10722;51.910;8.352;2023-03-21T11:43:52;34.47;;;17.30;;
21128;SDS011;10722;51.910;8.352;2023-03-21T11:46:39;34.93;;;17.40;;
21128;SDS011;10722;51.910;8.352;2023-03-21T11:49:24;38.63;;;18.10;;
21128;SDS011;10722;51.910;8.352;2023-03-21T12:28:55;34.23;;;15.43;;
21128;SDS011;10722;51.910;8.352;2023-03-21T12:44:25;24.92;;;12.35;;
21128;SDS011;10722;51.910;8.352;2023-03-21T12:47:17;30.77;;;14.40;;
21128;SDS011;10722;51.910;8.352;2023-03-21T12:50:16;29.70;;;12.83;;
21128;SDS011;10722;51.910;8.352;2023-03-21T13:02:59;22.10;;;11.03;;
21128;SDS011;10722;51.910;8.352;2023-03-21T13:05:49;21.43;;;10.77;;
21128;SDS011;10722;51.910;8.352;2023-03-21T13:09:13;22.75;;;10.77;;
21128;SDS011;10722;51.910;8.352;2023-03-21T13:12:06;24.93;;;10.17;;
21128;SDS011;10722;51.910;8.352;2023-03-21T13:15:04;22.20;;;10.60;;
21128;SDS011;10722;51.910;8.352;2023-03-21T13:21:29;21.47;;;10.00;;
21128;SDS011;10722;51.910;8.352;2023-03-21T13:24:33;22.30;;;9.47;;
21128;SDS011;10722;51.910;8.352;2023-03-21T13:27:34;20.47;;;9.23;;
21128;SDS011;10722;51.910;8.352;2023-03-21T13:30:25;21.43;;;8.97;;
21128;SDS011;10722;51.910;8.352;2023-03-21T13:33:13;18.50;;;8.23;;
21128;SDS011;10722;51.910;8.352;2023-03-21T13:36:04;19.97;;;8.27;;
21128;SDS011;10722;51.910;8.352;2023-03-21T13:38:52;15.98;;;7.07;;
21128;SDS011;10722;51.910;8.352;2023-03-21T13:41:44;18.65;;;9.13;;
21128;SDS011;10722;51.910;8.352;2023-03-21T13:51:07;19.17;;;7.57;;
21128;SDS011;10722;51.910;8.352;2023-03-21T13:56:25;21.77;;;8.65;;
21128;SDS011;10722;51.910;8.352;2023-03-21T13:59:12;18.13;;;8.60;;
21128;SDS011;10722;51.910;8.352;2023-03-21T14:05:07;20.65;;;7.50;;
21128;SDS011;10722;51.910;8.352;2023-03-21T14:08:05;15.93;;;7.55;;
21128;SDS011;10722;51.910;8.352;2023-03-21T14:11:06;17.60;;;7.30;;
21128;SDS011;10722;51.910;8.352;2023-03-21T14:13:56;16.67;;;7.00;;
21128;SDS011;10722;51.910;8.352;2023-03-21T14:16:43;19.20;;;7.63;;
21128;SDS011;10722;51.910;8.352;2023-03-21T14:19:29;16.95;;;7.05;;
21128;SDS011;10722;51.910;8.352;2023-03-21T14:22:15;17.83;;;6.93;;
21128;SDS011;10722;51.910;8.352;2023-03-21T14:25:01;17.08;;;7.03;;
21128;SDS011;10722;51.910;8.352;2023-03-21T14:27:52;14.27;;;7.00;;
21128;SDS011;10722;51.910;8.352;2023-03-21T14:30:40;15.90;;;5.60;;
21128;SDS011;10722;51.910;8.352;2023-03-21T14:36:22;14.10;;;4.90;;
21128;SDS011;10722;51.910;8.352;2023-03-21T14:39:16;12.85;;;4.07;;
21128;SDS011;10722;51.910;8.352;2023-03-21T14:42:12;12.53;;;3.80;;
21128;SDS011;10722;51.910;8.352;2023-03-21T14:44:58;12.13;;;4.40;;
21128;SDS011;10722;51.910;8.352;2023-03-21T14:51:03;13.85;;;4.28;;
21128;SDS011;10722;51.910;8.352;2023-03-21T14:53:51;14.83;;;4.43;;
21128;SDS011;10722;51.910;8.352;2023-03-21T14:56:36;13.48;;;4.45;;
21128;SDS011;10722;51.910;8.352;2023-03-21T14:59:23;13.83;;;4.33;;
21128;SDS011;10722;51.910;8.352;2023-03-21T15:02:24;13.23;;;4.00;;
21128;SDS011;10722;51.910;8.352;2023-03-21T15:08:17;12.27;;;4.30;;
21128;SDS011;10722;51.910;8.352;2023-03-21T15:11:06;12.60;;;3.95;;
21128;SDS011;10722;51.910;8.352;2023-03-21T15:13:55;14.05;;;4.10;;
21128;SDS011;10722;51.910;8.352;2023-03-21T15:16:44;11.33;;;3.57;;
21128;SDS011;10722;51.910;8.352;2023-03-21T15:19:30;11.45;;;3.80;;
21128;SDS011;10722;51.910;8.352;2023-03-21T15:22:28;12.48;;;3.75;;
21128;SDS011;10722;51.910;8.352;2023-03-21T15:25:19;12.23;;;4.10;;
21128;SDS011;10722;51.910;8.352;2023-03-21T15:28:11;11.60;;;3.72;;
21128;SDS011;10722;51.910;8.352;2023-03-21T15:30:58;12.63;;;3.50;;
21128;SDS011;10722;51.910;8.352;2023-03-21T15:33:47;14.57;;;3.67;;
21128;SDS011;10722;51.910;8.352;2023-03-21T15:36:41;11.60;;;3.47;;
21128;SDS011;10722;51.910;8.352;2023-03-21T15:39:28;10.47;;;3.60;;
21128;SDS011;10722;51.910;8.352;2023-03-21T15:45:31;11.17;;;3.77;;
21128;SDS011;10722;51.910;8.352;2023-03-21T15:48:20;14.00;;;3.80;;
21128;SDS011;10722;51.910;8.352;2023-03-21T15:51:19;12.15;;;3.90;;
21128;SDS011;10722;51.910;8.352;2023-03-21T15:54:14;11.25;;;3.60;;
21128;SDS011;10722;51.910;8.352;2023-03-21T15:57:03;11.60;;;3.63;;
21128;SDS011;10722;51.910;8.352;2023-03-21T16:09:12;11.93;;;3.93;;
21128;SDS011;10722;51.910;8.352;2023-03-21T16:11:59;11.37;;;3.50;;
21128;SDS011;10722;51.910;8.352;2023-03-21T16:14:45;12.87;;;3.90;;
21128;SDS011;10722;51.910;8.352;2023-03-21T16:17:34;11.77;;;3.67;;
21128;SDS011;10722;51.910;8.352;2023-03-21T16:20:20;12.50;;;3.33;;
21128;SDS011;10722;51.910;8.352;2023-03-21T16:23:12;13.10;;;3.33;;
21128;SDS011;10722;51.910;8.352;2023-03-21T16:25:58;10.55;;;3.85;;
21128;SDS011;10722;51.910;8.352;2023-03-21T16:28:44;8.85;;;3.20;;
21128;SDS011;10722;51.910;8.352;2023-03-21T16:31:30;10.82;;;3.50;;
21128;SDS011;10722;51.910;8.352;2023-03-21T16:34:17;11.52;;;3.42;;
21128;SDS011;10722;51.910;8.352;2023-03-21T16:37:02;11.27;;;3.63;;
21128;SDS011;10722;51.910;8.352;2023-03-21T16:39:48;11.73;;;3.58;;
21128;SDS011;10722;51.910;8.352;2023-03-21T16:42:33;12.57;;;3.50;;
21128;SDS011;10722;51.910;8.352;2023-03-21T16:45:18;11.90;;;3.53;;
21128;SDS011;10722;51.910;8.352;2023-03-21T16:48:04;12.50;;;3.67;;
21128;SDS011;10722;51.910;8.352;2023-03-21T16:50:49;11.85;;;3.80;;
21128;SDS011;10722;51.910;8.352;2023-03-21T16:53:35;10.60;;;3.53;;
21128;SDS011;10722;51.910;8.352;2023-03-21T16:56:21;11.57;;;3.55;;
21128;SDS011;10722;51.910;8.352;2023-03-21T16:59:10;16.00;;;4.50;;
21128;SDS011;10722;51.910;8.352;2023-03-21T17:01:56;10.90;;;3.80;;
21128;SDS011;10722;51.910;8.352;2023-03-21T17:04:42;10.77;;;3.97;;
21128;SDS011;10722;51.910;8.352;2023-03-21T17:07:27;15.10;;;4.53;;
21128;SDS011;10722;51.910;8.352;2023-03-21T17:10:20;12.93;;;4.00;;
21128;SDS011;10722;51.910;8.352;2023-03-21T17:13:05;11.17;;;4.00;;
21128;SDS011;10722;51.910;8.352;2023-03-21T17:15:50;13.20;;;4.03;;
21128;SDS011;10722;51.910;8.352;2023-03-21T17:18:35;14.32;;;4.78;;
21128;SDS011;10722;51.910;8.352;2023-03-21T17:21:22;11.32;;;4.10;;
21128;SDS011;10722;51.910;8.352;2023-03-21T17:24:08;11.93;;;4.13;;
21128;SDS011;10722;51.910;8.352;2023-03-21T17:26:54;11.07;;;3.80;;
21128;SDS011;10722;51.910;8.352;2023-03-21T17:29:39;12.17;;;4.17;;
21128;SDS011;10722;51.910;8.352;2023-03-21T17:32:24;11.80;;;4.20;;
21128;SDS011;10722;51.910;8.352;2023-03-21T17:35:10;10.13;;;3.70;;
21128;SDS011;10722;51.910;8.352;2023-03-21T17:37:56;15.27;;;4.00;;
21128;SDS011;10722;51.910;8.352;2023-03-21T17:40:41;10.32;;;4.05;;
21128;SDS011;10722;51.910;8.352;2023-03-21T17:43:26;12.73;;;4.40;;
21128;SDS011;10722;51.910;8.352;2023-03-21T17:46:12;13.85;;;4.70;;
21128;SDS011;10722;51.910;8.352;2023-03-21T17:48:59;14.10;;;4.47;;
21128;SDS011;10722;51.910;8.352;2023-03-21T17:51:44;12.47;;;4.13;;
21128;SDS011;10722;51.910;8.352;2023-03-21T17:54:29;13.03;;;4.60;;
21128;SDS011;10722;51.910;8.352;2023-03-21T17:57:15;12.47;;;4.50;;
21128;SDS011;10722;51.910;8.352;2023-03-21T18:00:00;11.67;;;4.43;;
21128;SDS011;10722;51.910;8.352;2023-03-21T18:02:46;12.43;;;4.50;;
21128;SDS011;10722;51.910;8.352;2023-03-21T18:05:32;13.37;;;4.80;;
21128;SDS011;10722;51.910;8.352;2023-03-21T18:08:17;12.80;;;4.60;;
21128;SDS011;10722;51.910;8.352;2023-03-21T18:11:03;12.80;;;5.07;;
21128;SDS011;10722;51.910;8.352;2023-03-21T18:13:48;14.75;;;5.25;;
21128;SDS011;10722;51.910;8.352;2023-03-21T18:16:34;13.80;;;5.05;;
21128;SDS011;10722;51.910;8.352;2023-03-21T18:19:19;13.47;;;4.97;;
21128;SDS011;10722;51.910;8.352;2023-03-21T18:22:05;16.30;;;5.40;;
21128;SDS011;10722;51.910;8.352;2023-03-21T18:24:50;14.37;;;5.20;;
21128;SDS011;10722;51.910;8.352;2023-03-21T18:27:36;15.40;;;5.40;;
21128;SDS011;10722;51.910;8.352;2023-03-21T18:30:41;14.40;;;5.37;;
21128;SDS011;10722;51.910;8.352;2023-03-21T18:33:47;16.50;;;5.35;;
21128;SDS011;10722;51.910;8.352;2023-03-21T18:36:33;14.18;;;4.90;;
21128;SDS011;10722;51.910;8.352;2023-03-21T18:39:19;12.43;;;4.90;;
21128;SDS011;10722;51.910;8.352;2023-03-21T18:42:04;12.57;;;5.00;;
21128;SDS011;10722;51.910;8.352;2023-03-21T18:44:50;14.38;;;5.00;;
21128;SDS011;10722;51.910;8.352;2023-03-21T18:47:36;13.67;;;5.30;;
21128;SDS011;10722;51.910;8.352;2023-03-21T18:50:22;14.77;;;5.97;;
21128;SDS011;10722;51.910;8.352;2023-03-21T18:53:07;14.35;;;5.38;;
21128;SDS011;10722;51.910;8.352;2023-03-21T18:55:53;14.60;;;5.30;;
21128;SDS011;10722;51.910;8.352;2023-03-21T18:58:38;13.07;;;4.88;;
21128;SDS011;10722;51.910;8.352;2023-03-21T19:01:23;14.43;;;5.22;;
21128;SDS011;10722;51.910;8.352;2023-03-21T19:04:08;15.98;;;6.32;;
21128;SDS011;10722;51.910;8.352;2023-03-21T19:07:08;16.42;;;7.18;;